sensor_id;sensor_type;location;lat;lon;timestamp;P1;durP1;ratioP1;P2;durP2;ratioP2
31686;SDS011;18285;51.330;4.946;2022-10-16T00:22:18;5.85;;;1.98;;
31686;SDS011;18285;51.330;4.946;2022-10-16T00:46:35;4.57;;;2.03;;
31686;SDS011;18285;51.330;4.946;2022-10-16T01:10:52;5.95;;;2.00;;
31686;SDS011;18285;51.330;4.946;2022-10-16T01:59:54;3.50;;;1.35;;
31686;SDS011;18285;51.330;4.946;2022-10-16T02:48:38;2.20;;;1.10;;
31686;SDS011;18285;51.330;4.946;2022-10-16T03:12:49;2.55;;;1.20;;
31686;SDS011;18285;51.330;4.946;2022-10-16T03:37:00;1.98;;;0.90;;
31686;SDS011;18285;51.330;4.946;2022-10-16T04:01:11;1.65;;;1.00;;
31686;SDS011;18285;51.330;4.946;2022-10-16T04:25:22;1.52;;;0.95;;
31686;SDS011;18285;51.330;4.946;2022-10-16T04:49:33;1.27;;;0.60;;
31686;SDS011;18285;51.330;4.946;2022-10-16T05:13:43;1.85;;;0.80;;
31686;SDS011;18285;51.330;4.946;2022-10-16T05:37:54;0.95;;;0.60;;
31686;SDS011;18285;51.330;4.946;2022-10-16T06:02:05;1.38;;;0.70;;
31686;SDS011;18285;51.330;4.946;2022-10-16T06:26:16;2.00;;;1.30;;
31686;SDS011;18285;51.330;4.946;2022-10-16T06:50:29;4.20;;;1.85;;
31686;SDS011;18285;51.330;4.946;2022-10-16T07:14:40;7.75;;;1.60;;
31686;SDS011;18285;51.330;4.946;2022-10-16T07:38:50;29.55;;;11.55;;
31686;SDS011;18285;51.330;4.946;2022-10-16T08:03:01;17.92;;;7.20;;
31686;SDS011;18285;51.330;4.946;2022-10-16T08:51:40;15.47;;;3.60;;
31686;SDS011;18285;51.330;4.946;2022-10-16T09:16:01;8.18;;;3.70;;
31686;SDS011;18285;51.330;4.946;2022-10-16T09:40:25;5.22;;;2.28;;
31686;SDS011;18285;51.330;4.946;2022-10-16T10:04:41;4.40;;;1.80;;
31686;SDS011;18285;51.330;4.946;2022-10-16T10:53:32;10.15;;;2.35;;
31686;SDS011;18285;51.330;4.946;2022-10-16T11:18:06;6.63;;;1.75;;
31686;SDS011;18285;51.330;4.946;2022-10-16T11:42:37;11.75;;;3.22;;
31686;SDS011;18285;51.330;4.946;2022-10-16T12:06:57;7.03;;;2.10;;
31686;SDS011;18285;51.330;4.946;2022-10-16T12:31:13;6.00;;;1.80;;
31686;SDS011;18285;51.330;4.946;2022-10-16T12:55:24;7.82;;;1.33;;
31686;SDS011;18285;51.330;4.946;2022-10-16T13:44:02;5.15;;;0.80;;
31686;SDS011;18285;51.330;4.946;2022-10-16T14:08:13;4.28;;;0.80;;
31686;SDS011;18285;51.330;4.946;2022-10-16T14:32:24;1.93;;;0.80;;
31686;SDS011;18285;51.330;4.946;2022-10-16T14:56:54;5.72;;;1.38;;
31686;SDS011;18285;51.330;4.946;2022-10-16T15:45:17;7.90;;;1.03;;
31686;SDS011;18285;51.330;4.946;2022-10-16T16:09:29;7.40;;;1.80;;
31686;SDS011;18285;51.330;4.946;2022-10-16T16:33:40;6.67;;;3.67;;
31686;SDS011;18285;51.330;4.946;2022-10-16T16:57:51;7.57;;;3.70;;
31686;SDS011;18285;51.330;4.946;2022-10-16T17:22:01;5.47;;;2.70;;
31686;SDS011;18285;51.330;4.946;2022-10-16T17:46:13;16.83;;;5.60;;
31686;SDS011;18285;51.330;4.946;2022-10-16T18:10:25;10.25;;;3.20;;
31686;SDS011;18285;51.330;4.946;2022-10-16T18:34:36;13.10;;;3.60;;
31686;SDS011;18285;51.330;4.946;2022-10-16T18:58:47;12.50;;;3.87;;
31686;SDS011;18285;51.330;4.946;2022-10-16T19:22:59;8.93;;;2.97;;
31686;SDS011;18285;51.330;4.946;2022-10-16T19:47:11;12.10;;;4.25;;
31686;SDS011;18285;51.330;4.946;2022-10-16T20:11:24;6.77;;;3.00;;
31686;SDS011;18285;51.330;4.946;2022-10-16T20:35:42;5.63;;;2.75;;
31686;SDS011;18285;51.330;4.946;2022-10-16T20:59:57;6.28;;;2.50;;
31686;SDS011;18285;51.330;4.946;2022-10-16T21:24:07;6.07;;;2.20;;
31686;SDS011;18285;51.330;4.946;2022-10-16T21:48:18;4.47;;;2.03;;
31686;SDS011;18285;51.330;4.946;2022-10-16T22:12:29;4.07;;;2.10;;
31686;SDS011;18285;51.330;4.946;2022-10-16T22:36:39;2.17;;;1.73;;
31686;SDS011;18285;51.330;4.946;2022-10-16T23:00:50;2.53;;;1.50;;
31686;SDS011;18285;51.330;4.946;2022-10-16T23:25:01;2.73;;;1.50;;
31686;SDS011;18285;51.330;4.946;2022-10-16T23:49:12;2.67;;;1.63;;
